To NAV CANADA Home Page Login to a new session Search on AWWS site Feedback and Comments Disclaimer Vers la page française équivalente Tips FAQ What's new on the site To the Forecasts and Observations / NOTAM section To "File a Flight Plan" website Publications and other links Update of the User's profile FIC Telephone Numbers My Weather Data Folder Route Weather Data Regional Weather Data Local Weather Data To the Forecasts and Observations / NOTAM section
Request Generated 08/25/2016 at 11:23:08 UTC . Weather information available at that time is displayed.

METAR/TAF

SCHEFFERVILLE/QC    (show WxCam)

METAR CYKL 251100Z AUTO 29005KT 270V330 9SM OVC034 07/04 A2972 RMK
SLP082=
METAR CYKL 251000Z AUTO 30005KT 9SM OVC036 06/04 A2972 RMK SLP080=
METAR CYKL 250900Z AUTO 28005KT 9SM OVC033 06/04 A2971 RMK SLP078=

TAF CYKL 250738Z 2508/2520 29004KT P6SM OVC040 TEMPO 2508/2515 BKN020
OVC040
FM251500 28008KT P6SM BKN040
RMK FCST BASED ON AUTO OBS. NXT FCST BY 251400Z=
Your time UTC time
Weather data provided by Environment Canada and NAV CANADA